createdAt,value
2018-09-22T00:01:38.578Z,15.90
2018-09-22T00:04:06.697Z,15.90
2018-09-22T00:06:34.187Z,15.90
2018-09-22T00:09:01.734Z,15.90
2018-09-22T00:11:29.254Z,15.90
2018-09-22T00:13:57.303Z,15.80
2018-09-22T00:16:24.817Z,15.80
2018-09-22T00:18:52.452Z,15.80
2018-09-22T00:21:19.967Z,15.80
2018-09-22T00:23:48.315Z,15.80
2018-09-22T00:26:15.817Z,15.90
2018-09-22T00:28:43.312Z,15.80
2018-09-22T00:31:10.814Z,15.80
2018-09-22T00:33:38.319Z,15.80
2018-09-22T00:36:05.803Z,15.70
2018-09-22T00:38:33.639Z,15.80
2018-09-22T00:41:02.020Z,15.70
2018-09-22T00:43:29.535Z,15.80
2018-09-22T00:45:57.020Z,15.80
2018-09-22T00:48:24.520Z,15.80
2018-09-22T00:50:52.040Z,15.80
2018-09-22T00:53:19.550Z,15.70
2018-09-22T00:55:47.063Z,15.70
2018-09-22T00:58:14.567Z,15.70
2018-09-22T01:00:42.072Z,15.70
2018-09-22T01:03:09.663Z,15.70
2018-09-22T01:05:37.183Z,15.70
2018-09-22T01:08:04.744Z,15.70
2018-09-22T01:10:32.260Z,15.70
2018-09-22T01:12:59.768Z,15.70
2018-09-22T01:15:27.332Z,15.70
2018-09-22T01:17:54.778Z,15.80
2018-09-22T01:20:22.275Z,15.70
2018-09-22T01:22:49.775Z,15.70
2018-09-22T01:25:17.315Z,15.80
2018-09-22T01:27:44.791Z,15.80
2018-09-22T01:30:12.315Z,15.70
2018-09-22T01:32:39.832Z,15.70
2018-09-22T01:35:07.331Z,15.70
2018-09-22T01:37:34.843Z,15.70
2018-09-22T01:40:02.350Z,15.70
2018-09-22T01:42:29.886Z,15.70
2018-09-22T01:44:57.414Z,15.80
2018-09-22T01:47:24.919Z,15.70
2018-09-22T01:49:52.461Z,15.10
2018-09-22T01:52:20.008Z,15.80
2018-09-22T01:54:47.468Z,15.80
2018-09-22T01:57:14.967Z,15.80
2018-09-22T01:59:42.478Z,15.70
2018-09-22T02:02:10.012Z,15.70
2018-09-22T02:04:37.516Z,15.70
2018-09-22T02:07:05.029Z,15.70
2018-09-22T02:09:32.538Z,15.70
2018-09-22T02:12:00.027Z,15.70
2018-09-22T02:14:27.543Z,15.70
2018-09-22T02:16:55.051Z,15.70
2018-09-22T02:19:22.531Z,15.70
2018-09-22T02:21:50.051Z,15.70
2018-09-22T02:24:17.579Z,15.70
2018-09-22T02:26:45.063Z,15.70
2018-09-22T02:29:12.688Z,15.70
2018-09-22T02:31:40.199Z,15.80
2018-09-22T02:34:07.688Z,15.70
2018-09-22T02:36:35.186Z,15.70
2018-09-22T02:39:04.072Z,15.70
2018-09-22T02:41:31.571Z,15.70
2018-09-22T02:43:59.042Z,15.70
2018-09-22T02:46:26.536Z,15.70
2018-09-22T02:48:54.026Z,15.70
2018-09-22T02:51:21.508Z,15.70
2018-09-22T02:53:49.015Z,15.70
2018-09-22T02:56:16.516Z,15.60
2018-09-22T02:58:44.032Z,15.70
2018-09-22T03:01:11.539Z,15.70
2018-09-22T03:03:39.038Z,15.70
2018-09-22T03:06:06.571Z,15.70
2018-09-22T03:08:34.148Z,15.70
2018-09-22T03:11:01.611Z,15.70
2018-09-22T03:13:29.094Z,15.80
2018-09-22T03:15:56.604Z,15.70
2018-09-22T03:18:24.106Z,15.70
2018-09-22T03:20:51.619Z,15.80
2018-09-22T03:23:19.128Z,15.80
2018-09-22T03:25:46.632Z,15.70
2018-09-22T03:28:14.180Z,15.70
2018-09-22T03:30:41.789Z,15.80
2018-09-22T03:33:09.265Z,15.70
2018-09-22T03:35:36.770Z,15.70
2018-09-22T03:38:04.502Z,15.60
2018-09-22T03:40:32.035Z,15.70
2018-09-22T03:42:59.543Z,15.70
2018-09-22T03:45:27.051Z,15.70
2018-09-22T03:47:54.582Z,15.70
2018-09-22T03:50:22.062Z,15.60
2018-09-22T03:52:49.572Z,15.60
2018-09-22T03:55:17.074Z,15.60
2018-09-22T03:57:44.564Z,15.60
2018-09-22T04:00:12.354Z,15.70
2018-09-22T04:02:39.924Z,15.60
2018-09-22T04:05:07.727Z,15.70
2018-09-22T04:07:35.212Z,15.70
2018-09-22T04:10:02.709Z,15.70
2018-09-22T04:12:30.231Z,15.70
2018-09-22T04:14:57.724Z,15.70
2018-09-22T04:17:25.317Z,15.70
2018-09-22T04:19:53.092Z,15.80
2018-09-22T04:22:20.579Z,15.80
2018-09-22T04:24:48.093Z,15.70
2018-09-22T04:27:15.591Z,15.80
2018-09-22T04:29:43.084Z,15.80
2018-09-22T04:32:10.578Z,15.80
2018-09-22T04:34:38.075Z,15.80
2018-09-22T04:37:05.627Z,15.80
2018-09-22T04:39:33.108Z,15.80
2018-09-22T04:42:00.616Z,15.70
2018-09-22T04:44:28.115Z,15.70
2018-09-22T04:46:55.619Z,15.70
2018-09-22T04:49:23.115Z,15.70
2018-09-22T04:51:50.721Z,15.70
2018-09-22T04:54:18.401Z,15.80
2018-09-22T04:56:45.892Z,15.80
2018-09-22T04:59:15.564Z,15.70
2018-09-22T05:01:43.068Z,15.70
2018-09-22T05:04:10.559Z,15.60
2018-09-22T05:06:38.047Z,15.70
2018-09-22T05:09:08.163Z,15.70
2018-09-22T05:11:35.670Z,15.70
2018-09-22T05:14:03.175Z,15.70
2018-09-22T05:16:30.675Z,15.70
2018-09-22T05:18:58.240Z,15.70
2018-09-22T05:21:25.942Z,15.70
2018-09-22T05:23:53.452Z,15.70
2018-09-22T05:26:21.223Z,15.80
2018-09-22T05:28:49.147Z,15.80
2018-09-22T05:31:16.700Z,15.80
2018-09-22T05:33:44.199Z,15.80
2018-09-22T05:36:11.693Z,15.70
2018-09-22T05:38:40.405Z,15.80
2018-09-22T05:41:07.943Z,15.80
2018-09-22T05:43:36.412Z,15.70
2018-09-22T05:46:03.934Z,15.80
2018-09-22T05:48:31.427Z,15.50
2018-09-22T05:50:58.913Z,15.80
2018-09-22T05:53:26.413Z,15.80
2018-09-22T05:55:53.892Z,15.80
2018-09-22T05:58:21.410Z,15.80
2018-09-22T06:00:48.962Z,15.90
2018-09-22T06:03:16.511Z,15.90
2018-09-22T06:05:44.002Z,15.90
2018-09-22T06:08:11.524Z,15.90
2018-09-22T06:10:39.123Z,15.80
2018-09-22T06:13:06.627Z,15.80
2018-09-22T06:15:34.151Z,15.80
2018-09-22T06:18:01.646Z,15.80
2018-09-22T06:20:29.196Z,15.90
2018-09-22T06:22:56.953Z,15.90
2018-09-22T06:25:24.463Z,15.90
2018-09-22T06:27:52.824Z,15.90
2018-09-22T06:30:20.324Z,15.90
2018-09-22T06:32:47.835Z,15.90
2018-09-22T06:35:15.347Z,16.00
2018-09-22T06:37:42.852Z,16.00
2018-09-22T06:40:10.344Z,16.00
2018-09-22T06:42:37.852Z,16.00
2018-09-22T06:45:05.383Z,16.00
2018-09-22T06:47:32.939Z,16.10
2018-09-22T06:50:00.493Z,16.10
2018-09-22T06:52:27.976Z,16.10
2018-09-22T06:54:55.576Z,16.00
2018-09-22T06:57:23.099Z,16.10
2018-09-22T06:59:50.592Z,16.10
2018-09-22T07:02:18.119Z,16.10
2018-09-22T07:04:45.658Z,16.10
2018-09-22T07:07:13.168Z,16.10
2018-09-22T07:09:40.801Z,16.10
2018-09-22T07:12:08.343Z,16.20
2018-09-22T07:14:35.844Z,16.20
2018-09-22T07:17:03.535Z,16.20
2018-09-22T07:19:31.295Z,16.20
2018-09-22T07:22:04.341Z,16.20
2018-09-22T07:24:31.884Z,16.20
2018-09-22T07:26:59.400Z,16.20
2018-09-22T07:29:26.915Z,16.20
2018-09-22T07:31:54.419Z,16.30
2018-09-22T07:34:21.926Z,16.30
2018-09-22T07:36:49.419Z,16.20
2018-09-22T07:39:17.000Z,16.30
2018-09-22T07:41:44.511Z,16.30
2018-09-22T07:44:12.026Z,16.30
2018-09-22T07:46:39.539Z,16.20
2018-09-22T07:49:07.179Z,16.30
2018-09-22T07:51:34.662Z,16.30
2018-09-22T07:54:02.166Z,16.30
2018-09-22T07:56:29.908Z,16.30
2018-09-22T07:58:57.399Z,16.20
2018-09-22T08:01:25.806Z,16.20
2018-09-22T08:03:54.221Z,16.10
2018-09-22T08:06:21.991Z,16.10
2018-09-22T08:08:49.479Z,16.10
2018-09-22T08:11:16.996Z,16.10
2018-09-22T08:13:44.506Z,16.20
2018-09-22T08:16:12.024Z,16.20
2018-09-22T08:18:39.516Z,16.30
2018-09-22T08:21:07.063Z,16.20
2018-09-22T08:23:34.619Z,16.30
2018-09-22T08:26:02.183Z,16.30
2018-09-22T08:28:29.687Z,16.40
2018-09-22T08:30:57.169Z,16.50
2018-09-22T08:33:24.677Z,16.50
2018-09-22T08:35:52.307Z,16.50
2018-09-22T08:38:19.863Z,16.50
2018-09-22T08:40:47.371Z,16.50
2018-09-22T08:43:14.895Z,16.50
2018-09-22T08:45:42.404Z,16.50
2018-09-22T08:48:09.926Z,16.40
2018-09-22T08:50:37.505Z,16.40
2018-09-22T08:53:05.000Z,16.40
2018-09-22T08:55:33.125Z,16.40
2018-09-22T08:58:00.649Z,16.40
2018-09-22T09:00:28.159Z,16.40
2018-09-22T09:02:55.720Z,16.40
2018-09-22T09:05:23.244Z,16.40
2018-09-22T09:07:50.766Z,16.40
2018-09-22T09:10:18.315Z,16.40
2018-09-22T09:12:45.816Z,16.40
2018-09-22T09:15:13.321Z,16.40
2018-09-22T09:17:40.833Z,16.40
2018-09-22T09:20:08.336Z,16.40
2018-09-22T09:22:35.839Z,16.50
2018-09-22T09:25:03.363Z,16.50
2018-09-22T09:27:30.920Z,16.50
2018-09-22T09:29:58.389Z,16.60
2018-09-22T09:32:25.899Z,16.60
2018-09-22T09:34:53.407Z,16.60
2018-09-22T09:37:20.895Z,16.70
2018-09-22T09:39:48.434Z,16.70
2018-09-22T09:42:16.016Z,16.60
2018-09-22T09:44:43.507Z,16.60
2018-09-22T09:47:11.023Z,16.70
2018-09-22T09:49:38.508Z,16.70
2018-09-22T09:52:06.049Z,16.70
2018-09-22T09:54:33.607Z,16.80
2018-09-22T09:57:01.077Z,16.90
2018-09-22T09:59:28.619Z,16.90
2018-09-22T10:01:56.377Z,16.80
2018-09-22T10:04:24.471Z,16.80
2018-09-22T10:06:52.328Z,16.90
2018-09-22T10:09:20.032Z,16.80
2018-09-22T10:11:47.560Z,16.80
2018-09-22T10:14:15.065Z,16.70
2018-09-22T10:16:43.469Z,16.70
2018-09-22T10:19:10.995Z,16.70
2018-09-22T10:21:38.531Z,16.80
2018-09-22T10:24:06.091Z,16.80
2018-09-22T10:26:33.583Z,16.80
2018-09-22T10:29:01.166Z,16.90
2018-09-22T10:31:28.667Z,16.90
2018-09-22T10:33:56.267Z,16.90
2018-09-22T10:36:23.793Z,16.90
2018-09-22T10:38:51.299Z,16.90
2018-09-22T10:41:18.792Z,16.90
2018-09-22T10:43:46.318Z,17.00
2018-09-22T10:46:13.948Z,16.90
2018-09-22T10:48:41.447Z,16.90
2018-09-22T10:51:08.955Z,17.00
2018-09-22T10:53:36.459Z,16.80
2018-09-22T10:56:03.965Z,16.60
2018-09-22T10:58:31.460Z,16.50
2018-09-22T11:00:59.660Z,16.40
2018-09-22T11:03:27.235Z,16.30
2018-09-22T11:05:54.697Z,16.20
2018-09-22T11:08:22.206Z,16.10
2018-09-22T11:10:49.699Z,16.00
2018-09-22T11:13:17.218Z,15.80
2018-09-22T11:15:44.752Z,15.80
2018-09-22T11:18:12.259Z,15.80
2018-09-22T11:20:39.804Z,15.70
2018-09-22T11:23:07.385Z,15.70
2018-09-22T11:25:34.922Z,15.70
2018-09-22T11:28:02.460Z,15.70
2018-09-22T11:30:30.267Z,15.60
2018-09-22T11:32:57.811Z,15.50
2018-09-22T11:35:25.415Z,15.60
2018-09-22T11:37:52.923Z,16.10
2018-09-22T11:40:20.447Z,15.70
2018-09-22T11:42:47.970Z,15.70
2018-09-22T11:45:15.481Z,15.70
2018-09-22T11:47:42.983Z,15.60
2018-09-22T11:50:10.732Z,15.50
2018-09-22T11:52:38.447Z,15.50
2018-09-22T11:55:05.977Z,15.40
2018-09-22T11:57:33.779Z,15.40
2018-09-22T12:00:01.320Z,15.30
2018-09-22T12:02:29.975Z,15.20
2018-09-22T12:04:57.492Z,15.20
2018-09-22T12:07:24.991Z,15.10
2018-09-22T12:09:52.583Z,14.90
2018-09-22T12:12:20.092Z,14.90
2018-09-22T12:14:48.732Z,14.80
2018-09-22T12:17:16.235Z,15.60
2018-09-22T12:19:44.266Z,14.80
2018-09-22T12:22:11.787Z,14.80
2018-09-22T12:24:39.316Z,14.70
2018-09-22T12:27:06.836Z,14.70
2018-09-22T12:29:34.318Z,14.70
2018-09-22T12:32:01.879Z,14.70
2018-09-22T12:34:29.412Z,14.70
2018-09-22T12:36:56.922Z,14.80
2018-09-22T12:39:24.419Z,14.70
2018-09-22T12:41:51.944Z,14.70
2018-09-22T12:44:19.453Z,14.70
2018-09-22T12:46:46.978Z,14.60
2018-09-22T12:49:14.489Z,14.60
2018-09-22T12:51:42.973Z,14.50
2018-09-22T12:54:10.478Z,14.70
2018-09-22T12:56:38.032Z,14.60
2018-09-22T12:59:05.648Z,14.60
2018-09-22T13:01:33.168Z,14.60
2018-09-22T13:04:00.666Z,14.60
2018-09-22T13:06:28.214Z,14.60
2018-09-22T13:08:55.732Z,14.60
2018-09-22T13:11:23.255Z,14.60
2018-09-22T13:13:50.759Z,14.60
2018-09-22T13:16:18.352Z,14.60
2018-09-22T13:18:46.076Z,14.60
2018-09-22T13:21:13.631Z,14.60
2018-09-22T13:23:42.099Z,14.70
2018-09-22T13:26:09.591Z,14.60
2018-09-22T13:28:37.279Z,14.60
2018-09-22T13:31:04.994Z,14.60
2018-09-22T13:33:32.727Z,14.60
2018-09-22T13:36:00.248Z,14.70
2018-09-22T13:38:28.183Z,14.70
2018-09-22T13:40:55.674Z,14.70
2018-09-22T13:43:23.200Z,14.70
2018-09-22T13:45:50.701Z,14.70
2018-09-22T13:48:18.220Z,14.80
2018-09-22T13:50:45.797Z,14.80
2018-09-22T13:53:13.659Z,14.80
2018-09-22T13:55:41.167Z,14.70
2018-09-22T13:58:08.696Z,14.80
2018-09-22T14:00:36.247Z,14.80
2018-09-22T14:03:03.742Z,14.70
2018-09-22T14:05:31.264Z,14.80
2018-09-22T14:07:58.896Z,14.70
2018-09-22T14:10:26.430Z,14.70
2018-09-22T14:12:55.205Z,14.60
2018-09-22T14:15:22.758Z,15.90
2018-09-22T14:17:50.308Z,14.60
2018-09-22T14:20:17.830Z,14.60
2018-09-22T14:22:45.334Z,14.60
2018-09-22T14:25:12.867Z,14.60
2018-09-22T14:27:40.372Z,14.60
2018-09-22T14:30:07.927Z,14.50
2018-09-22T14:32:35.543Z,14.40
2018-09-22T14:35:03.061Z,14.50
2018-09-22T14:37:30.783Z,14.50
2018-09-22T14:39:58.294Z,14.50
2018-09-22T14:42:25.821Z,14.50
2018-09-22T14:44:53.336Z,15.60
2018-09-22T14:47:20.847Z,14.40
2018-09-22T14:49:48.357Z,14.40
2018-09-22T14:52:15.922Z,14.40
2018-09-22T14:54:43.495Z,14.40
2018-09-22T14:57:11.268Z,14.40
2018-09-22T14:59:38.832Z,14.30
2018-09-22T15:02:06.586Z,14.40
2018-09-22T15:04:34.117Z,14.40
2018-09-22T15:07:01.642Z,14.50
2018-09-22T15:09:29.314Z,14.40
2018-09-22T15:11:56.852Z,14.40
2018-09-22T15:14:24.376Z,14.40
2018-09-22T15:16:51.871Z,14.40
2018-09-22T15:19:19.404Z,14.40
2018-09-22T15:21:46.925Z,14.30
2018-09-22T15:24:15.352Z,14.30
2018-09-22T15:26:42.861Z,14.30
2018-09-22T15:29:10.404Z,14.30
2018-09-22T15:31:37.928Z,14.30
2018-09-22T15:34:05.530Z,14.30
2018-09-22T15:36:33.158Z,14.30
2018-09-22T15:39:00.662Z,14.30
2018-09-22T15:41:28.235Z,14.30
2018-09-22T15:43:55.776Z,14.30
2018-09-22T15:46:23.288Z,14.50
2018-09-22T15:48:50.800Z,14.40
2018-09-22T15:51:18.336Z,14.40
2018-09-22T15:53:45.840Z,14.30
2018-09-22T15:56:13.357Z,14.30
2018-09-22T15:58:40.872Z,14.40
2018-09-22T16:01:08.380Z,14.40
2018-09-22T16:03:35.899Z,14.40
2018-09-22T16:06:03.408Z,14.30
2018-09-22T16:08:30.906Z,14.40
2018-09-22T16:10:58.432Z,14.30
2018-09-22T16:13:25.921Z,14.40
2018-09-22T16:15:53.434Z,14.50
2018-09-22T16:18:20.944Z,14.50
2018-09-22T16:20:48.507Z,14.50
2018-09-22T16:23:16.012Z,14.50
2018-09-22T16:25:43.563Z,14.50
2018-09-22T16:28:11.069Z,14.40
2018-09-22T16:30:38.592Z,14.40
2018-09-22T16:33:06.184Z,14.40
2018-09-22T16:35:33.786Z,14.40
2018-09-22T16:38:01.303Z,14.40
2018-09-22T16:40:28.815Z,14.40
2018-09-22T16:42:56.377Z,14.40
2018-09-22T16:45:23.888Z,14.40
2018-09-22T16:47:51.404Z,14.50
2018-09-22T16:50:19.053Z,14.40
2018-09-22T16:52:46.547Z,14.40
2018-09-22T16:55:14.148Z,14.50
2018-09-22T16:57:41.663Z,14.40
2018-09-22T17:00:09.155Z,14.40
2018-09-22T17:02:36.663Z,14.40
2018-09-22T17:05:04.153Z,14.40
2018-09-22T17:07:31.710Z,14.40
2018-09-22T17:09:59.861Z,14.40
2018-09-22T17:12:27.364Z,14.50
2018-09-22T17:14:54.886Z,14.40
2018-09-22T17:17:22.380Z,14.40
2018-09-22T17:19:49.920Z,14.40
2018-09-22T17:22:17.523Z,14.40
2018-09-22T17:24:45.047Z,14.40
2018-09-22T17:27:12.601Z,14.40
2018-09-22T17:29:40.112Z,14.40
2018-09-22T17:32:07.623Z,14.30
2018-09-22T17:34:35.121Z,14.30
2018-09-22T17:37:02.611Z,14.30
2018-09-22T17:39:30.131Z,14.30
2018-09-22T17:41:57.643Z,14.30
2018-09-22T17:44:25.136Z,14.10
2018-09-22T17:46:52.665Z,14.30
2018-09-22T17:49:20.189Z,14.20
2018-09-22T17:51:47.834Z,14.20
2018-09-22T17:54:15.333Z,14.20
2018-09-22T17:56:43.746Z,14.20
2018-09-22T17:59:11.235Z,14.20
2018-09-22T18:01:39.558Z,14.20
2018-09-22T18:04:07.124Z,14.20
2018-09-22T18:06:34.640Z,14.20
2018-09-22T18:09:02.230Z,14.20
2018-09-22T18:11:29.757Z,14.10
2018-09-22T18:13:57.274Z,14.10
2018-09-22T18:16:25.527Z,14.10
2018-09-22T18:18:53.046Z,14.10
2018-09-22T18:21:20.619Z,14.00
2018-09-22T18:23:48.128Z,14.10
2018-09-22T18:26:15.647Z,14.10
2018-09-22T18:28:43.179Z,14.00
2018-09-22T18:31:10.691Z,14.00
2018-09-22T18:33:38.183Z,14.00
2018-09-22T18:36:05.760Z,14.00
2018-09-22T18:38:33.275Z,14.00
2018-09-22T18:41:00.770Z,14.00
2018-09-22T18:43:28.339Z,13.90
2018-09-22T18:45:55.869Z,13.90
2018-09-22T18:48:23.427Z,13.90
2018-09-22T18:50:50.964Z,13.90
2018-09-22T18:53:18.482Z,13.90
2018-09-22T18:55:46.892Z,13.90
2018-09-22T18:58:14.392Z,13.90
2018-09-22T19:00:41.882Z,13.90
2018-09-22T19:03:09.603Z,14.00
2018-09-22T19:05:37.205Z,13.90
2018-09-22T19:08:04.925Z,13.90
2018-09-22T19:10:32.434Z,13.90
2018-09-22T19:13:01.044Z,13.90
2018-09-22T19:15:36.871Z,13.90
2018-09-22T19:19:09.891Z,13.90
2018-09-22T19:21:47.467Z,14.00
2018-09-22T19:24:25.093Z,13.90
2018-09-22T19:26:59.557Z,13.90
2018-09-22T19:29:30.952Z,13.90
2018-09-22T19:32:02.815Z,13.90
2018-09-22T19:34:33.647Z,13.90
2018-09-22T19:37:05.332Z,13.90
2018-09-22T19:39:40.374Z,13.90
2018-09-22T19:42:11.002Z,13.90
2018-09-22T19:44:42.539Z,13.90
2018-09-22T19:48:15.539Z,13.90
2018-09-22T19:50:48.260Z,13.90
2018-09-22T19:53:15.826Z,13.90
2018-09-22T19:55:43.329Z,13.90
2018-09-22T19:58:10.891Z,13.90
2018-09-22T20:00:38.364Z,13.90
2018-09-22T20:03:05.943Z,13.90
2018-09-22T20:05:33.469Z,13.90
2018-09-22T20:08:01.946Z,13.90
2018-09-22T20:10:29.435Z,13.90
2018-09-22T20:12:56.948Z,13.90
2018-09-22T20:15:24.569Z,13.90
2018-09-22T20:17:52.144Z,13.90
2018-09-22T20:20:19.675Z,13.90
2018-09-22T20:22:47.234Z,13.90
2018-09-22T20:25:15.251Z,13.90
2018-09-22T20:27:42.772Z,13.90
2018-09-22T20:30:10.325Z,13.90
2018-09-22T20:32:37.877Z,14.00
2018-09-22T20:35:05.478Z,13.90
2018-09-22T20:37:33.154Z,14.00
2018-09-22T20:40:00.674Z,14.00
2018-09-22T20:42:28.209Z,13.90
2018-09-22T20:44:55.747Z,14.00
2018-09-22T20:47:23.239Z,14.00
2018-09-22T20:49:51.402Z,14.00
2018-09-22T20:52:18.907Z,14.00
2018-09-22T20:54:46.631Z,13.90
2018-09-22T20:57:14.208Z,13.90
2018-09-22T20:59:41.717Z,13.80
2018-09-22T21:02:09.341Z,13.90
2018-09-22T21:04:36.831Z,13.90
2018-09-22T21:07:04.434Z,13.90
2018-09-22T21:09:31.984Z,13.80
2018-09-22T21:11:59.480Z,13.80
2018-09-22T21:14:26.996Z,13.80
2018-09-22T21:16:54.503Z,13.80
2018-09-22T21:19:22.074Z,13.80
2018-09-22T21:21:49.591Z,13.80
2018-09-22T21:24:17.133Z,13.70
2018-09-22T21:26:44.661Z,13.70
2018-09-22T21:29:12.182Z,13.80
2018-09-22T21:31:39.716Z,13.80
2018-09-22T21:34:07.219Z,13.80
2018-09-22T21:36:34.758Z,13.80
2018-09-22T21:39:02.416Z,13.80
2018-09-22T21:41:29.938Z,13.80
2018-09-22T21:43:57.421Z,13.80
2018-09-22T21:46:25.026Z,13.80
2018-09-22T21:48:52.531Z,13.80
2018-09-22T21:51:20.014Z,13.80
2018-09-22T21:53:47.535Z,13.80
2018-09-22T21:56:15.084Z,13.80
2018-09-22T21:58:42.595Z,13.70
2018-09-22T22:01:15.884Z,13.70
2018-09-22T22:03:44.017Z,13.70
2018-09-22T22:06:11.565Z,13.70
2018-09-22T22:08:39.128Z,13.70
2018-09-22T22:11:06.790Z,13.70
2018-09-22T22:13:34.299Z,13.70
2018-09-22T22:16:01.794Z,13.60
2018-09-22T22:18:29.316Z,13.60
2018-09-22T22:20:56.830Z,13.70
2018-09-22T22:23:24.393Z,13.70
2018-09-22T22:25:51.895Z,13.60
2018-09-22T22:28:19.395Z,13.70
2018-09-22T22:30:46.969Z,13.70
2018-09-22T22:33:14.463Z,13.70
2018-09-22T22:35:41.951Z,13.70
2018-09-22T22:38:09.467Z,12.70
2018-09-22T22:40:36.956Z,13.70
2018-09-22T22:43:05.567Z,13.70
2018-09-22T22:45:33.043Z,13.70
2018-09-22T22:48:00.571Z,13.70
2018-09-22T22:50:28.067Z,13.70
2018-09-22T22:52:55.582Z,13.60
2018-09-22T22:55:23.266Z,12.30
2018-09-22T22:57:50.759Z,13.70
2018-09-22T23:00:18.264Z,13.70
2018-09-22T23:02:45.766Z,13.70
2018-09-22T23:05:13.263Z,13.70
2018-09-22T23:07:40.759Z,13.70
2018-09-22T23:10:08.303Z,13.70
2018-09-22T23:12:35.899Z,13.70
2018-09-22T23:15:03.478Z,13.60
2018-09-22T23:17:31.013Z,13.60
2018-09-22T23:19:58.606Z,13.60
2018-09-22T23:22:26.313Z,13.60
2018-09-22T23:24:53.812Z,13.60
2018-09-22T23:27:21.317Z,13.70
2018-09-22T23:29:48.799Z,13.70
2018-09-22T23:32:16.295Z,13.70
2018-09-22T23:34:43.817Z,13.70
2018-09-22T23:37:11.316Z,13.70
2018-09-22T23:39:38.811Z,13.70
2018-09-22T23:42:06.351Z,13.70
2018-09-22T23:44:33.908Z,13.70
2018-09-22T23:47:01.443Z,13.60
2018-09-22T23:49:28.947Z,13.60
2018-09-22T23:51:56.447Z,13.60
2018-09-22T23:54:23.948Z,13.60
2018-09-22T23:56:51.447Z,13.60
2018-09-22T23:59:18.979Z,13.60
